Weather observations for the past three days for
Eveleth-Virginia Municipal Airport
| Date | Time (cdt) | Wind (mph) | Vis. (mi.) | Weather | Sky Cond. | Temperature (ºF) | Relative Humidity | Wind Chill (°F) | Heat Index (°F) | Pressure | Precipitation (in) | ||||||
|---|---|---|---|---|---|---|---|---|---|---|---|---|---|---|---|---|---|
| Air | Dwpt | 6 hour | altimeter (in) | sea level (mb) | 1 hr | 3 hr | 6 hr | ||||||||||
| Max. | Min. | ||||||||||||||||
| 06 | 01:15 | NW 7 | 10.00 | Overcast | SCT033 BKN043 OVC049 | 32.2 | 21.7 | 65% | 26 | 29.9 | 0.0 | ||||||
| 06 | 00:55 | NW 15 G 20 | 10.00 | Mostly Cloudy | BKN033 BKN039 BKN046 | 32.4 | 21.4 | 36.7 | 32.2 | 64% | 23 | 29.89 | 0.0 | ||||
| 06 | 00:35 | NW 13 G 16 | 10.00 | Mostly Cloudy | SCT036 BKN043 BKN050 | 32.5 | 22.5 | 66% | 24 | 29.89 | 0.0 | ||||||
| 06 | 00:15 | NW 12 G 16 | 10.00 | Overcast | SCT033 OVC039 | 33.3 | 23 | 66% | 25 | 29.89 | 0.0 | ||||||
| 05 | 23:55 | NW 9 | 10.00 | Overcast | OVC036 | 33.8 | 23 | 65% | 27 | 29.89 | 0.0 | ||||||
| 05 | 23:35 | N 9 G 17 | 10.00 | Overcast | OVC038 | 34 | 22.6 | 63% | 27 | 29.89 | 0.0 | ||||||
| 05 | 23:15 | N 8 | 10.00 | Overcast | OVC038 | 34.2 | 22.6 | 63% | 28 | 29.89 | 0.0 | ||||||
| 05 | 22:55 | NW 7 | 10.00 | Overcast | OVC038 | 34.7 | 22.6 | 61% | 29 | 29.88 | 0.0 | ||||||
| 05 | 22:35 | NW 12 G 16 | 10.00 | Overcast | OVC040 | 34.7 | 22.6 | 61% | 27 | 29.88 | 0.0 | ||||||
| 05 | 22:15 | NW 10 | 10.00 | Overcast | OVC040 | 34.7 | 22.1 | 60% | 28 | 29.88 | 0.0 | ||||||
| 05 | 21:55 | NW 6 | 10.00 | Overcast | OVC040 | 35.1 | 22.1 | 59% | 31 | 29.88 | 0.0 | ||||||
| 05 | 21:35 | NW 8 | 10.00 | Overcast | OVC040 | 35.2 | 22.5 | 60% | 29 | 29.88 | 0.0 | ||||||
| 05 | 21:15 | NW 9 | 10.00 | Overcast | OVC040 | 35.6 | 22.8 | 60% | 29 | 29.87 | 0.0 | ||||||
| 05 | 20:55 | NW 8 | 10.00 | Overcast | OVC040 | 35.6 | 22.6 | 59% | 30 | 29.86 | 0.0 | ||||||
| 05 | 20:35 | NW 10 | 10.00 | Overcast | OVC042 | 35.6 | 22.3 | 58% | 29 | 29.86 | 0.0 | ||||||
| 05 | 20:15 | NW 10 G 17 | 10.00 | Overcast | OVC042 | 36 | 21.9 | 57% | 29 | 29.86 | 0.0 | ||||||
| 05 | 19:55 | NW 9 G 16 | 10.00 | Overcast | OVC042 | 36 | 21.6 | 56% | 30 | 29.85 | 0.0 | ||||||
| 05 | 19:35 | NW 12 G 18 | 10.00 | Overcast | OVC042 | 36.1 | 21.4 | 55% | 29 | 29.85 | 0.0 | ||||||
| 05 | 19:15 | NW 9 | 10.00 | Overcast | OVC042 | 36.5 | 21.2 | 54% | 30 | 29.84 | 0.0 | ||||||
| 05 | 18:55 | W 15 G 20 | 10.00 | Overcast | OVC042 | 36.9 | 21.7 | 39.6 | 36.5 | 54% | 29 | 29.84 | 0.0 | ||||
| 05 | 18:35 | NW 15 G 23 | 10.00 | Overcast | OVC044 | 37.4 | 21.4 | 52% | 29 | 29.83 | 0.0 | ||||||
| 05 | 18:15 | NW 14 G 18 | 10.00 | Overcast | OVC044 | 37.8 | 21.7 | 52% | 30 | 29.83 | 0.0 | ||||||
| 05 | 17:55 | NW 15 G 20 | 10.00 | Overcast | OVC044 | 38.1 | 21.6 | 51% | 30 | 29.83 | 0.0 | ||||||
| 05 | 17:35 | NW 15 G 20 | 10.00 | Overcast | OVC044 | 39 | 21.9 | 50% | 31 | 29.82 | 0.0 | ||||||
| 05 | 17:15 | NW 14 G 18 | 10.00 | Overcast | OVC044 | 39.2 | 22.1 | 50% | 32 | 29.81 | 0.0 | ||||||
| 05 | 16:55 | W 15 G 20 | 10.00 | Overcast | BKN044 OVC095 | 39.2 | 21.7 | 50% | 31 | 29.81 | 0.0 | ||||||
| 05 | 16:35 | W 12 G 17 | 10.00 | Overcast | OVC044 | 39.4 | 22.5 | 51% | 33 | 29.81 | 0.0 | ||||||
| 05 | 16:15 | W 15 G 21 | 10.00 | Overcast | OVC044 | 38.8 | 22.5 | 52% | 31 | 29.81 | 0.0 | ||||||
| 05 | 15:55 | NW 15 | 10.00 | Overcast | OVC042 | 38.7 | 22.6 | 53% | 31 | 29.81 | 0.0 | ||||||
| 05 | 15:35 | NW 16 | 10.00 | Overcast | OVC042 | 38.7 | 22.1 | 51% | 30 | 29.81 | 0.0 | ||||||
| 05 | 15:15 | NW 13 G 21 | 10.00 | Overcast | OVC039 | 38.8 | 23 | 53% | 32 | 29.81 | 0.0 | ||||||
| 05 | 14:55 | W 13 G 18 | 10.00 | Overcast | OVC039 | 37.9 | 22.1 | 53% | 31 | 29.81 | 0.0 | ||||||
| 05 | 14:35 | W 8 G 18 | 10.00 | Overcast | OVC039 | 37.8 | 22.5 | 54% | 32 | 29.81 | 0.0 | ||||||
| 05 | 14:15 | W 13 G 20 | 10.00 | Overcast | OVC041 | 37.4 | 21.4 | 52% | 30 | 29.81 | 0.0 | ||||||
| 05 | 13:55 | W 12 G 18 | 10.00 | Overcast | OVC041 | 37.2 | 21.2 | 52% | 30 | 29.8 | 0.0 | ||||||
| 05 | 13:35 | W 13 G 18 | 10.00 | Overcast | OVC043 | 37 | 20.7 | 52% | 30 | 29.8 | 0.0 | ||||||
| 05 | 13:15 | W 10 | 10.00 | Overcast | OVC041 | 36.9 | 20.5 | 52% | 30 | 29.79 | 0.0 | ||||||
| 05 | 12:55 | W 13 G 17 | 10.00 | Overcast | OVC043 | 37 | 21 | 37 | 30.6 | 52% | 30 | 29.79 | 0.0 | ||||
| 05 | 12:35 | NW 13 G 20 | 10.00 | Overcast | OVC043 | 36.5 | 19.9 | 51% | 29 | 29.79 | 0.0 | ||||||
| 05 | 12:15 | NW 12 G 16 | 10.00 | Overcast | OVC041 | 36.5 | 19.8 | 51% | 29 | 29.78 | 0.0 | ||||||
| 05 | 11:55 | N 12 G 20 | 10.00 | Overcast | BKN039 OVC045 | 35.6 | 19.6 | 52% | 28 | 29.79 | 0.0 | ||||||
| 05 | 11:35 | NW 10 G 20 | 10.00 | Overcast | OVC037 | 34.3 | 19.6 | 55% | 27 | 29.78 | 0.0 | ||||||
| 05 | 11:15 | NW 14 G 18 | 10.00 | Overcast | OVC037 | 34.5 | 20.1 | 56% | 26 | 29.77 | 0.0 | ||||||
| 05 | 10:55 | NW 13 G 21 | 10.00 | Overcast | SCT030 OVC037 | 34.3 | 20.7 | 57% | 26 | 29.77 | 0.0 | ||||||
| 05 | 10:35 | NW 13 G 21 | 10.00 | Overcast | OVC028 | 32.4 | 21.4 | 64% | 24 | 29.76 | 0.0 | ||||||
| 05 | 10:15 | NW 15 G 23 | 10.00 | Overcast | OVC030 | 32 | 21.4 | 65% | 22 | 29.76 | 0.0 | ||||||
| 05 | 09:55 | NW 14 G 24 | 10.00 | Overcast | OVC030 | 31.6 | 20.3 | 63% | 22 | 29.75 | 0.0 | ||||||
| 05 | 09:35 | NW 14 G 21 | 10.00 | Overcast | OVC030 | 31.6 | 20.5 | 63% | 22 | 29.75 | 0.0 | ||||||
| 05 | 09:15 | NW 13 G 20 | 10.00 | Light Snow | OVC030 | 30.9 | 21.2 | 67% | 22 | 29.74 | 0.0 | ||||||
| 05 | 08:55 | NW 12 | 10.00 | Light Snow | OVC032 | 30.9 | 21.4 | 68% | 22 | 29.74 | 0.0 | ||||||
| 05 | 08:35 | NW 14 G 17 | 10.00 | Light Snow | OVC029 | 30.6 | 20.5 | 66% | 21 | 29.73 | 0.0 | ||||||
| 05 | 08:15 | NW 10 | 10.00 | Overcast | BKN033 OVC038 | 30.6 | 19.9 | 65% | 22 | 29.73 | 0.0 | ||||||
| 05 | 07:55 | NW 14 G 20 | 10.00 | Overcast | BKN033 BKN038 OVC050 | 30.9 | 19.6 | 63% | 21 | 29.72 | 0.0 | ||||||
| 05 | 07:35 | NW 15 G 24 | 10.00 | Overcast | SCT033 BKN041 OVC050 | 30.7 | 19.8 | 64% | 21 | 29.72 | 0.0 | ||||||
| 05 | 07:15 | NW 14 G 21 | 10.00 | Overcast | SCT030 SCT035 OVC050 | 30.6 | 19.6 | 64% | 21 | 29.71 | 0.0 | ||||||
| 05 | 07:01 | NW 9 G 24 | 10.00 | Mostly Cloudy | SCT028 SCT035 BKN050 | 30.9 | 19.9 | 64% | 24 | 29.71 | 0.0 | ||||||
| 05 | 06:04 | NW 14 | 10.00 | Mostly Cloudy | SCT028 SCT035 BKN070 | 30.7 | 20.8 | 67% | 21 | 29.71 | 0.0 | ||||||
| 05 | 05:44 | NW 12 G 20 | 10.00 | Partly Cloudy | SCT028 SCT033 SCT070 | 30.4 | 20.7 | 67% | 22 | 29.7 | 0.0 | ||||||
| 05 | 05:24 | W 16 G 22 | 10.00 | Partly Cloudy | SCT026 SCT036 | 30.2 | 20.8 | 68% | 20 | 29.69 | 0.0 | ||||||
| 05 | 05:04 | NW 15 G 20 | 10.00 | Overcast | OVC026 | 31.1 | 22.1 | 69% | 21 | 29.69 | 0.0 | ||||||
| 05 | 04:44 | NW 12 G 18 | 10.00 | Overcast | OVC028 | 31.1 | 22.6 | 71% | 23 | 29.68 | 0.0 | ||||||
| 05 | 04:24 | NW 12 G 17 | 10.00 | Overcast | OVC028 | 31.1 | 22.1 | 69% | 23 | 29.68 | 0.0 | ||||||
| 05 | 04:04 | NW 12 G 21 | 10.00 | Overcast | SCT021 OVC030 | 31.1 | 22.3 | 70% | 23 | 29.68 | 0.0 | ||||||
| 05 | 03:44 | NW 13 G 20 | 10.00 | Overcast | OVC019 | 31.1 | 23.9 | 75% | 22 | 29.67 | 0.0 | ||||||
| 05 | 03:24 | NW 14 G 18 | 10.00 | Overcast | OVC019 | 31.1 | 24.4 | 76% | 22 | 29.67 | 0.0 | ||||||
| 05 | 03:04 | NW 15 G 22 | 10.00 | Overcast | OVC019 | 31.1 | 23.9 | 75% | 21 | 29.66 | 0.0 | ||||||
| 05 | 02:44 | NW 16 G 21 | 10.00 | Overcast | OVC019 | 31.5 | 25 | 77% | 21 | 29.66 | 0.0 | ||||||
| 05 | 02:24 | NW 12 G 21 | 10.00 | Overcast | BKN019 OVC024 | 31.8 | 25.7 | 78% | 24 | 29.65 | 0.0 | ||||||
| 05 | 02:04 | NW 13 G 22 | 10.00 | Overcast | BKN013 OVC021 | 32 | 27.9 | 85% | 23 | 29.65 | 0.0 | ||||||
| 05 | 01:44 | NW 10 | 10.00 | Overcast | OVC013 | 32.2 | 28.9 | 88% | 24 | 29.65 | 0.0 | ||||||
| 05 | 01:24 | NW 9 | 10.00 | Overcast | BKN015 OVC023 | 32.5 | 29.3 | 88% | 26 | 29.65 | 0.0 | ||||||
| 05 | 01:04 | NW 8 | 10.00 | Overcast | SCT015 OVC023 | 32.9 | 29.3 | 87% | 27 | 29.65 | 0.0 | ||||||
| 05 | 00:44 | NW 12 G 16 | 7.00 | Light Snow | SCT017 BKN023 OVC049 | 32.5 | 28.4 | 85% | 24 | 29.65 | 0.0 | ||||||
| 05 | 00:24 | NW 14 G 17 | 10.00 | Overcast | SCT023 SCT034 OVC100 | 34 | 27.1 | 76% | 25 | 29.64 | 0.0 | ||||||
| 05 | 00:04 | NW 12 G 17 | 10.00 | Overcast | OVC100 | 34.5 | 27 | 74% | 27 | 29.64 | 0.0 | ||||||
| 04 | 23:44 | NW 8 | 10.00 | Overcast | OVC100 | 34.7 | 26.6 | 72% | 29 | 29.64 | 0.0 | ||||||
| 04 | 23:24 | NW 12 G 17 | 10.00 | Overcast | OVC100 | 34.7 | 26.6 | 72% | 27 | 29.64 | 0.0 | ||||||
| 04 | 23:04 | NW 13 G 20 | 10.00 | Mostly Cloudy | BKN100 | 35.1 | 27.7 | 75% | 27 | 29.63 | 0.0 | ||||||
| 04 | 22:44 | NW 12 | 10.00 | Partly Cloudy | SCT044 | 35.6 | 28.4 | 75% | 28 | 29.63 | 0.0 | ||||||
| 04 | 22:24 | NW 10 G 16 | 10.00 | Partly Cloudy | SCT044 | 35.6 | 29.7 | 79% | 29 | 29.63 | 0.0 | ||||||
| 04 | 22:04 | W 9 | 10.00 | Partly Cloudy | SCT048 | 35.1 | 29.5 | 80% | 29 | 29.63 | 0.0 | ||||||
| 04 | 21:44 | W 9 | 10.00 | Partly Cloudy | SCT075 SCT085 | 35.6 | 29.8 | 80% | 29 | 29.63 | 0.0 | ||||||
| 04 | 21:24 | NW 8 | 10.00 | Mostly Cloudy | SCT022 SCT075 BKN085 | 36.3 | 30.6 | 80% | 31 | 29.62 | 0.0 | ||||||
| 04 | 21:04 | W 14 G 18 | 10.00 | Partly Cloudy | SCT080 | 36.5 | 30.2 | 78% | 28 | 29.62 | 0.0 | ||||||
| 04 | 20:44 | W 13 | 10.00 | Mostly Cloudy | SCT027 SCT035 BKN080 | 37.4 | 30 | 75% | 30 | 29.61 | 0.0 | ||||||
| 04 | 20:24 | NW 10 G 16 | 10.00 | Mostly Cloudy | BKN080 | 38.1 | 30.6 | 74% | 32 | 29.6 | 0.0 | ||||||
| 04 | 20:04 | NW 9 | 10.00 | Mostly Cloudy | BKN080 | 37.4 | 31.8 | 80% | 31 | 29.59 | 0.0 | ||||||
| 04 | 19:44 | W 8 | 10.00 | Mostly Cloudy | SCT006 SCT023 BKN070 | 36.5 | 31.1 | 81% | 31 | 29.59 | 0.0 | ||||||
| 04 | 19:24 | NW 16 G 25 | 10.00 | Mostly Cloudy | BKN042 BKN050 BKN070 | 39.7 | 30 | 68% | 32 | 29.59 | 0.0 | ||||||
| 04 | 19:04 | NW 12 G 23 | 10.00 | Mostly Cloudy | SCT046 BKN070 | 41 | 26.6 | 57% | 35 | 29.57 | 0.0 | ||||||
| 04 | 18:44 | NW 15 G 24 | 10.00 | Overcast | SCT048 BKN065 OVC080 | 41.9 | 25.7 | 53% | 35 | 29.57 | 0.0 | ||||||
| 04 | 18:24 | W 18 G 26 | 10.00 | Overcast | BKN048 BKN075 OVC080 | 42.3 | 25.2 | 51% | 34 | 29.56 | 0.0 | ||||||
| 04 | 18:04 | W 18 G 26 | 10.00 | Overcast | SCT050 OVC070 | 42.3 | 25.5 | 52% | 34 | 29.55 | 0.0 | ||||||
| 04 | 17:44 | W 12 G 22 | 10.00 | Overcast | OVC070 | 42.3 | 26.4 | 54% | 36 | 29.55 | 0.0 | ||||||
| 04 | 17:24 | W 16 G 30 | 10.00 | Overcast | SCT050 OVC060 | 42.4 | 26.4 | 53% | 35 | 29.54 | 0.0 | ||||||
| 04 | 17:04 | W 15 G 21 | 10.00 | Overcast | SCT042 OVC060 | 42.4 | 27.5 | 56% | 36 | 29.54 | 0.0 | ||||||
| 04 | 16:44 | W 15 G 24 | 10.00 | Overcast | SCT040 BKN048 OVC050 | 42.3 | 28.4 | 58% | 35 | 29.53 | 0.0 | ||||||
| 04 | 16:24 | W 16 G 22 | 10.00 | Light Drizzle | BKN038 BKN044 OVC050 | 41.9 | 29.8 | 62% | 35 | 29.53 | 0.0 | ||||||
| 04 | 16:04 | W 13 G 24 | 10.00 | Overcast | SCT038 BKN044 OVC050 | 43 | 29.1 | 58% | 37 | 29.52 | 0.0 | ||||||
| 04 | 15:14 | W 13 G 24 | 0.00 | NULL | NULL | 43.7 | 29.7 | 58% | 38 | 29.51 | 0.0 | ||||||
| 04 | 13:55 | W 16 G 28 | 10.00 | Overcast | BKN033 BKN042 OVC050 | 43.7 | 32.5 | 65% | 37 | 29.47 | 0.0 | ||||||
| 04 | 13:35 | W 23 G 32 | 10.00 | Mostly Cloudy and Breezy | SCT033 BKN041 BKN050 | 45.5 | 31.6 | 58% | 38 | 29.45 | 0.0 | ||||||
| 04 | 13:15 | NW 17 G 24 | 10.00 | Overcast | BKN031 OVC039 | 44.6 | 32 | 61% | 38 | 29.44 | 0.0 | ||||||
| 04 | 12:55 | W 18 G 30 | 7.00 | Overcast | BKN029 OVC038 | 42.6 | 33.4 | 47.3 | 42.4 | 70% | 35 | 29.43 | 0.0 | ||||
| 04 | 12:35 | W 21 G 32 | 10.00 | Mostly Cloudy and Breezy | SCT024 BKN036 BKN047 | 45.1 | 31.5 | 59% | 38 | 29.42 | 0.0 | ||||||
| 04 | 12:15 | W 15 G 25 | 7.00 | Mostly Cloudy | SCT014 SCT024 BKN028 | 43.9 | 34.7 | 70% | 37 | 29.42 | 0.0 | ||||||
| 04 | 11:55 | W 20 G 29 | 10.00 | Overcast | BKN031 BKN039 OVC045 | 45.5 | 32.5 | 61% | 38 | 29.41 | 0.0 | ||||||
| 04 | 11:35 | W 22 G 29 | 10.00 | Overcast and Breezy | BKN028 OVC035 | 43.9 | 32.9 | 65% | 36 | 29.41 | 0.0 | ||||||
| 04 | 11:15 | W 14 G 25 | 10.00 | Overcast | BKN024 OVC033 | 43.3 | 33.3 | 68% | 37 | 29.4 | 0.0 | ||||||
| 04 | 10:55 | W 17 G 31 | 10.00 | Overcast | BKN024 BKN030 OVC039 | 42.4 | 34.2 | 73% | 35 | 29.4 | 0.0 | ||||||
| 04 | 10:35 | W 17 G 33 | 10.00 | Overcast | BKN026 BKN032 OVC039 | 43.5 | 34.2 | 70% | 36 | 29.38 | 0.0 | ||||||
| 04 | 10:15 | NW 15 G 33 | 10.00 | Overcast | OVC027 | 43.7 | 34.3 | 70% | 37 | 29.37 | 0.0 | ||||||
| 04 | 09:55 | W 24 G 32 | 10.00 | Overcast and Breezy | BKN026 OVC035 | 43.7 | 34.5 | 70% | 35 | 29.36 | 0.0 | ||||||
| 04 | 09:35 | W 22 G 29 | 10.00 | Overcast and Breezy | BKN026 OVC030 | 45 | 36 | 71% | 37 | 29.35 | 0.0 | ||||||
| 04 | 09:15 | W 18 G 26 | 10.00 | Overcast | BKN026 OVC030 | 46.6 | 37.9 | 72% | 40 | 29.32 | 0.0 | ||||||
| 04 | 08:55 | W 17 G 25 | 10.00 | Overcast | BKN024 OVC030 | 46.6 | 38.7 | 74% | 40 | 29.32 | 0.0 | ||||||
| 04 | 08:35 | W 16 G 30 | 10.00 | Overcast | BKN020 OVC025 | 46.4 | 39.7 | 78% | 40 | 29.32 | 0.0 | ||||||
| 04 | 08:15 | W 14 G 21 | 10.00 | Overcast | OVC018 | 45.9 | 40.8 | 83% | 40 | 29.31 | 0.0 | ||||||
| 04 | 07:55 | W 15 G 23 | 10.00 | Overcast | OVC018 | 45.5 | 41.2 | 85% | 39 | 29.31 | 0.0 | ||||||
| 04 | 07:35 | W 10 G 17 | 10.00 | Overcast | OVC018 | 45.1 | 41.7 | 88% | 40 | 29.3 | 0.0 | ||||||
| 04 | 07:15 | W 10 | 10.00 | Overcast | BKN020 BKN045 OVC090 | 44.6 | 41.9 | 90% | 40 | 29.29 | 0.0 | ||||||
| 04 | 06:55 | W 9 | 10.00 | Overcast | SCT020 SCT045 OVC100 | 44.6 | 41.7 | 58.6 | 44.6 | 90% | 40 | 29.28 | 0.0 | 0.02 | 0.03 | ||
| 04 | 06:35 | W 8 | 10.00 | Overcast | SCT038 SCT048 OVC100 | 44.8 | 41.9 | 90% | 41 | 29.28 | 0.0 | 0.02 | |||||
| 04 | 06:15 | SW 9 | 10.00 | Light Rain | BKN038 OVC046 | 44.8 | 42.3 | 91% | 40 | 29.27 | 0.0 | 0.02 | |||||
| 04 | 05:55 | W 13 G 23 | 7.00 | Rain | SCT021 BKN038 OVC050 | 46 | 41.2 | 83% | 41 | 29.3 | 0.0 | 0.01 | |||||
| 04 | 05:35 | NW 21 G 30 | 10.00 | Overcast and Breezy | SCT029 OVC048 | 49.1 | 38.8 | 68% | 43 | 29.29 | 0.0 | ||||||
| 04 | 05:15 | NW 20 G 26 | 10.00 | Overcast | OVC042 | 50 | 39.2 | 67% | 44 | 29.29 | 0.0 | ||||||
| 04 | 04:55 | NW 17 G 29 | 10.00 | Mostly Cloudy | BKN036 BKN050 BKN070 | 50.9 | 39.4 | 65% | 29.28 | 0.0 | |||||||
| 04 | 04:35 | NW 24 G 35 | 10.00 | Mostly Cloudy and Breezy | SCT036 SCT050 BKN070 | 52.3 | 40.5 | 64% | 29.28 | 0.0 | |||||||
| 04 | 04:15 | W 13 | 10.00 | Mostly Cloudy | BKN070 | 58.1 | 32.2 | 38% | 29.23 | 0.0 | |||||||
| 04 | 03:55 | SW 14 G 23 | 10.00 | Partly Cloudy | SCT080 SCT095 SCT120 | 58.5 | 32 | 37% | 29.22 | 0.0 | |||||||
| 04 | 03:35 | SW 14 G 21 | 10.00 | Partly Cloudy | SCT095 SCT120 | 58.3 | 32 | 37% | 29.23 | 0.0 | |||||||
| 04 | 03:15 | SW 15 G 23 | 10.00 | Mostly Cloudy | BKN110 | 58.1 | 32 | 37% | 29.24 | 0.0 | |||||||
| 04 | 02:55 | SW 15 G 18 | 10.00 | Mostly Cloudy | BKN110 | 57.9 | 32.2 | 38% | 29.25 | 0.0 | |||||||
| 04 | 02:35 | SW 12 G 18 | 10.00 | Partly Cloudy | SCT110 | 57.7 | 32.4 | 38% | 29.27 | 0.0 | |||||||
| 04 | 02:15 | SW 12 G 20 | 10.00 | Mostly Cloudy | BKN100 | 57.4 | 32.4 | 39% | 29.3 | 0.0 | |||||||
| 04 | 01:55 | SW 12 G 21 | 10.00 | Overcast | OVC100 | 57.7 | 32.2 | 38% | 29.3 | 0.0 | |||||||
| 04 | 01:35 | SW 14 G 23 | 10.00 | Overcast | OVC110 | 57.6 | 32 | 38% | 29.31 | 0.0 | |||||||
| 04 | 01:15 | SW 14 G 23 | 10.00 | Partly Cloudy | SCT120 | 57.6 | 32 | 38% | 29.32 | 0.0 | |||||||
| 04 | 00:55 | SW 14 G 21 | 10.00 | Fair | CLR | 57 | 31.8 | 63 | 54.3 | 39% | 29.34 | 0.0 | |||||
| 04 | 00:35 | SW 13 G 20 | 10.00 | Partly Cloudy | SCT100 | 57.2 | 31.3 | 37% | 29.36 | 0.0 | |||||||
| 04 | 00:15 | SW 13 G 20 | 10.00 | Partly Cloudy | SCT100 | 56.5 | 30.9 | 38% | 29.37 | 0.0 | |||||||
| 03 | 23:55 | SW 10 G 17 | 10.00 | Partly Cloudy | SCT110 | 55.4 | 30.7 | 39% | 29.38 | 0.0 | |||||||
| 03 | 23:35 | SW 12 G 16 | 10.00 | Fair | CLR | 54.9 | 30.6 | 40% | 29.4 | 0.0 | |||||||
| 03 | 23:15 | S 9 | 10.00 | Fair | CLR | 54.5 | 30.7 | 40% | 29.41 | 0.0 | |||||||
| 03 | 22:55 | S 10 | 10.00 | Fair | CLR | 54.7 | 30.4 | 40% | 29.43 | 0.0 | |||||||
| 03 | 22:35 | S 8 | 10.00 | Mostly Cloudy | BKN100 | 55 | 30 | 38% | 29.45 | 0.0 | |||||||
| 03 | 22:15 | S 9 | 10.00 | Mostly Cloudy | BKN100 | 56.1 | 30.2 | 37% | 29.47 | 0.0 | |||||||
| 03 | 21:55 | S 10 | 10.00 | Mostly Cloudy | BKN110 | 56.5 | 29.8 | 36% | 29.48 | 0.0 | |||||||
| 03 | 21:35 | S 9 | 10.00 | Partly Cloudy | SCT100 | 56.3 | 29.5 | 36% | 29.49 | 0.0 | |||||||
| 03 | 21:15 | S 7 | 10.00 | Fair | CLR | 55.2 | 29.8 | 38% | 29.5 | 0.0 | |||||||
| 03 | 20:55 | S 7 | 10.00 | Fair | CLR | 55.4 | 29.5 | 37% | 29.52 | 0.0 | |||||||
| 03 | 20:35 | SW 5 | 10.00 | Fair | CLR | 56.7 | 28.4 | 34% | 29.52 | 0.0 | |||||||
| 03 | 20:15 | SW 7 | 10.00 | Fair | CLR | 59 | 29.3 | 32% | 29.54 | 0.0 | |||||||
| 03 | 19:55 | SW 8 | 10.00 | Fair | CLR | 60.1 | 29.5 | 31% | 29.55 | 0.0 | |||||||
| 03 | 19:35 | W 9 | 10.00 | Fair | CLR | 61.2 | 29.7 | 30% | 29.56 | 0.0 | |||||||
| 03 | 19:15 | W 10 G 16 | 10.00 | Fair | CLR | 62.2 | 29.8 | 29% | 29.57 | 0.0 | |||||||
| 03 | 18:55 | W 8 | 10.00 | Fair | CLR | 63.1 | 30.7 | 30% | 29.58 | 0.0 | |||||||
| 03 | 18:36 | SW 9 | 10.00 | Fair | CLR | 0 | 0 | 0% | 29.59 | 0.0 | |||||||
| 03 | 18:15 | W 10 G 18 | 10.00 | Fair | CLR | 62.8 | 29.1 | 28% | 29.6 | 0.0 | |||||||
| 03 | 17:55 | W 12 | 10.00 | Fair | CLR | 63 | 28.8 | 28% | 29.6 | 0.0 | |||||||
| 03 | 17:35 | W 15 G 21 | 10.00 | Fair | CLR | 62.8 | 28 | 27% | 29.61 | 0.0 | |||||||
| 03 | 17:15 | W 9 G 25 | 10.00 | Fair | CLR | 62.8 | 28.8 | 28% | 29.61 | 0.0 | |||||||
| 03 | 16:55 | NW 15 G 22 | 10.00 | Fair | CLR | 64.8 | 29.1 | 26% | 29.62 | 0.0 | |||||||
| 03 | 16:35 | W 6 G 21 | 10.00 | Fair | CLR | 64.6 | 30.4 | 28% | 29.62 | 0.0 | |||||||
| 03 | 16:15 | W 16 G 22 | 10.00 | Fair | CLR | 64.6 | 30.2 | 28% | 29.62 | 0.0 | |||||||
| 03 | 15:55 | W 16 G 20 | 10.00 | Fair | CLR | 63.7 | 30 | 28% | 29.62 | 0.0 | |||||||
| 03 | 15:35 | NW 10 | 10.00 | Fair | CLR | 63 | 29.5 | 28% | 29.64 | 0.0 | |||||||
| 03 | 15:15 | W 18 G 25 | 10.00 | Fair | CLR | 62.4 | 29.5 | 29% | 29.64 | 0.0 | |||||||
| 03 | 14:55 | W 15 G 22 | 10.00 | Fair | CLR | 63.5 | 30 | 28% | 29.65 | 0.0 | |||||||
| 03 | 14:35 | NW 16 G 23 | 10.00 | Fair | CLR | 62.6 | 29.1 | 28% | 29.66 | 0.0 | |||||||
| 03 | 14:15 | W 17 G 22 | 10.00 | Fair | CLR | 61.2 | 27.7 | 28% | 29.66 | 0.0 | |||||||
| 03 | 13:55 | NW 9 G 28 | 10.00 | Fair | CLR | 60.8 | 27.9 | 29% | 29.67 | 0.0 | |||||||
| 03 | 13:35 | NW 17 G 24 | 10.00 | Fair | CLR | 60.6 | 27.7 | 29% | 29.68 | 0.0 | |||||||
| 03 | 13:15 | NW 14 G 20 | 10.00 | Fair | CLR | 59 | 24.8 | 27% | 29.68 | 0.0 | |||||||
| 03 | 12:55 | NW 17 G 23 | 10.00 | Fair | CLR | 59.4 | 23.4 | 59.5 | 34.5 | 25% | 29.69 | 0.0 | |||||
| 03 | 12:35 | NW 16 G 21 | 10.00 | Fair | CLR | 58.3 | 21.7 | 24% | 29.7 | 0.0 | |||||||
| 03 | 12:15 | NW 16 G 20 | 10.00 | Fair | CLR | 57.9 | 23.5 | 27% | 29.7 | 0.0 | |||||||
| 03 | 11:55 | NW 14 G 23 | 10.00 | Fair | CLR | 57 | 22.6 | 26% | 29.71 | 0.0 | |||||||
| 03 | 11:35 | N 12 G 21 | 10.00 | Fair | CLR | 56.3 | 23.7 | 28% | 29.71 | 0.0 | |||||||
| 03 | 11:15 | NW 13 G 23 | 10.00 | Fair | CLR | 55.4 | 25 | 31% | 29.71 | 0.0 | |||||||
| 03 | 10:55 | NW 17 G 24 | 10.00 | Fair | CLR | 55 | 27.3 | 34% | 29.71 | 0.0 | |||||||
| 03 | 10:35 | NW 14 G 22 | 10.00 | Fair | CLR | 54 | 28.4 | 37% | 29.71 | 0.0 | |||||||
| 03 | 10:15 | NW 16 G 23 | 10.00 | Fair | CLR | 53.1 | 27.9 | 38% | 29.71 | 0.0 | |||||||
| 03 | 09:55 | NW 15 G 23 | 10.00 | Fair | CLR | 52.5 | 30.7 | 43% | 29.71 | 0.0 | |||||||
| 03 | 09:35 | NW 12 G 17 | 10.00 | Fair | CLR | 52.5 | 32.7 | 47% | 29.71 | 0.0 | |||||||
| 03 | 09:15 | NW 10 G 21 | 10.00 | Fair | CLR | 51.3 | 34.2 | 52% | 29.71 | 0.0 | |||||||
| 03 | 08:55 | NW 9 G 16 | 10.00 | Fair | CLR | 50 | 36.3 | 60% | 47 | 29.71 | 0.0 | ||||||
| 03 | 08:35 | NW 10 G 18 | 10.00 | Fair | CLR | 46.8 | 42.6 | 86% | 42 | 29.7 | 0.0 | ||||||
| 03 | 08:15 | NW 8 G 17 | 10.00 | Fair | CLR | 46.4 | 43.2 | 89% | 43 | 29.7 | 0.0 | ||||||
| 03 | 07:55 | NW 9 G 20 | 10.00 | Fair | CLR | 45.5 | 43.3 | 92% | 41 | 29.7 | 0.0 | ||||||
| 03 | 07:35 | NW 7 | 10.00 | Fair | CLR | 45 | 44.1 | 97% | 42 | 29.69 | 0.0 | ||||||
| 03 | 07:15 | W 5 | 10.00 | Fair | CLR | 36.9 | 36.9 | 100% | 34 | 29.68 | 0.0 | ||||||
| 03 | 06:55 | Calm | 10.00 | Fair | CLR | 33.6 | 33.6 | 45.9 | 32 | 100% | 29.68 | 0.0 | |||||
| 03 | 06:35 | Calm | 4.00 | Fog/Mist | CLR | 32.4 | 32.4 | 100% | 29.68 | 0.0 | |||||||
| 03 | 06:15 | Calm | 0.50 | Fog | VV005 | 32 | 32 | 100% | 29.68 | 0.0 | |||||||
| 03 | 05:55 | Calm | 0.75 | Fog/Mist | VV005 | 32 | 32 | 100% | 29.68 | 0.0 | |||||||
| 03 | 05:35 | Calm | 0.25 | Fog | BKN002 | 33.6 | 33.4 | 99% | 29.68 | 0.0 | |||||||
| 03 | 05:15 | Calm | 1.25 | Fog/Mist | SCT002 | 33.4 | 33.3 | 99% | 29.69 | 0.0 | |||||||
| 03 | 04:55 | Calm | 0.50 | Fog | OVC002 | 35.1 | 34.9 | 99% | 29.69 | 0.0 | |||||||
| 03 | 04:35 | Calm | 0.50 | Fog | BKN002 | 33.8 | 33.6 | 99% | 29.69 | 0.0 | |||||||
| 03 | 04:15 | Calm | 0.50 | Fog | BKN002 | 35.4 | 35.4 | 100% | 29.7 | 0.0 | |||||||
| 03 | 03:55 | Calm | 0.50 | Fog | OVC002 | 35.4 | 35.4 | 100% | 29.7 | 0.0 | |||||||
| 03 | 03:35 | Calm | 0.50 | Fog | OVC002 | 37 | 36.9 | 99% | 29.71 | 0.0 | |||||||
| 03 | 03:15 | Calm | 0.25 | Fog | OVC002 | 37.4 | 37 | 99% | 29.71 | 0.0 | |||||||
| 03 | 02:55 | Calm | 0.50 | Fog | OVC002 | 39 | 38.8 | 99% | 29.71 | 0.0 | |||||||
| 03 | 02:35 | Calm | 0.75 | Fog/Mist | OVC002 | 41.4 | 41.2 | 99% | 29.71 | 0.0 | |||||||
| 03 | 02:15 | Calm | 0.25 | Fog | OVC002 | 41.7 | 41.4 | 99% | 29.72 | 0.0 | |||||||
| 03 | 01:55 | Calm | 0.50 | Fog | SCT002 OVC080 | 43 | 42.4 | 98% | 29.72 | 0.0 | |||||||
| 03 | 01:35 | Calm | 2.50 | Fog/Mist | OVC080 | 44.6 | 44.1 | 98% | 29.72 | 0.0 | |||||||
| Date | Time (cdt) | Wind (mph) | Vis. (mi.) | Weather | Sky Cond. | Air | Dwpt | Max. | Min. | Relative Humidity | Wind Chill (°F) | Heat Index (°F) | altimeter (in) | sea level (mb) | 1 hr | 3 hr | 6 hr |
| 6 hour | |||||||||||||||||
| Temperature (ºF) | Pressure | Precipitation (in) | |||||||||||||||